Time;durP1;ratioP1;P1;durP2;ratioP2;P2;SDS_P1;SDS_P2;PMS_P1;PMS_P2;Temp;Humidity;BMP_temperature;BMP_pressure;BME280_temperature;BME280_humidity;BME280_pressure;Samples;Min_cycle;Max_cycle;Signal;HPM_P1;HPM_P2
2023/01/31 00:00:22;;;;;;;1.40;1.10;;;4.60;99.90;;;;;;4999071;28;20227;-73
2023/01/31 00:02:51;;;;;;;3.72;1.40;;;4.60;99.90;;;;;;4996159;28;20373;-75
2023/01/31 00:05:19;;;;;;;2.25;1.42;;;4.60;99.90;;;;;;5006967;28;20228;-76
2023/01/31 00:07:48;;;;;;;3.60;1.60;;;4.60;99.90;;;;;;4997336;28;20355;-75
2023/01/31 00:10:17;;;;;;;4.63;1.00;;;4.60;99.90;;;;;;5002086;28;20224;-75
2023/01/31 00:12:45;;;;;;;3.22;1.77;;;4.60;99.90;;;;;;5007696;28;20703;-74
2023/01/31 00:15:15;;;;;;;3.17;1.17;;;4.60;99.90;;;;;;5002952;28;20309;-75
2023/01/31 00:17:44;;;;;;;3.40;1.30;;;4.60;99.90;;;;;;5000040;28;20625;-75
2023/01/31 00:20:12;;;;;;;4.95;1.00;;;4.60;99.90;;;;;;4993689;28;20228;-74
2023/01/31 00:22:41;;;;;;;2.88;1.33;;;4.60;99.90;;;;;;5006367;28;20209;-73
2023/01/31 00:25:09;;;;;;;3.22;1.05;;;4.60;99.90;;;;;;5000293;28;20247;-74
2023/01/31 00:27:37;;;;;;;2.00;1.33;;;4.60;99.90;;;;;;4998630;28;20289;-73
2023/01/31 00:30:09;;;;;;;5.00;0.90;;;4.60;99.90;;;;;;5002771;28;20208;-74
2023/01/31 00:32:40;;;;;;;5.85;1.17;;;4.60;99.90;;;;;;4986392;28;20252;-75
2023/01/31 00:35:09;;;;;;;2.45;1.50;;;4.60;99.90;;;;;;5002794;28;20301;-73
2023/01/31 00:37:37;;;;;;;3.65;1.27;;;4.60;99.90;;;;;;4999004;28;20253;-74
2023/01/31 00:40:07;;;;;;;2.88;1.13;;;4.60;99.90;;;;;;4997641;28;20230;-74
2023/01/31 00:42:35;;;;;;;3.28;1.10;;;4.60;99.90;;;;;;5002250;28;20390;-74
2023/01/31 00:45:04;;;;;;;4.05;1.15;;;4.60;99.90;;;;;;5003426;28;20241;-72
2023/01/31 00:47:33;;;;;;;4.20;1.25;;;4.60;99.90;;;;;;5000840;28;20237;-74
2023/01/31 00:50:05;;;;;;;5.22;1.85;;;4.60;99.90;;;;;;5003811;28;20709;-74
2023/01/31 00:52:33;;;;;;;4.30;1.15;;;4.60;99.90;;;;;;4994065;28;20221;-74
2023/01/31 00:55:03;;;;;;;2.67;1.92;;;4.60;99.90;;;;;;5002716;28;20693;-73
2023/01/31 00:57:31;;;;;;;1.92;0.98;;;4.60;99.90;;;;;;5002188;28;20197;-75
2023/01/31 01:00:03;;;;;;;2.90;1.30;;;4.60;99.90;;;;;;5005685;28;20202;-73
2023/01/31 01:02:31;;;;;;;1.52;1.00;;;4.60;99.90;;;;;;5019347;28;20206;-75
2023/01/31 01:05:00;;;;;;;1.88;1.30;;;4.60;99.90;;;;;;5014618;28;20221;-73
2023/01/31 01:07:30;;;;;;;2.75;1.15;;;4.60;99.90;;;;;;5006592;28;20225;-73
2023/01/31 01:10:00;;;;;;;3.63;1.38;;;4.60;99.90;;;;;;4994403;28;20585;-73
2023/01/31 01:12:29;;;;;;;3.13;1.27;;;4.60;99.90;;;;;;5006225;28;20205;-73
2023/01/31 01:14:58;;;;;;;1.95;1.38;;;4.60;99.90;;;;;;4996929;28;20267;-74
2023/01/31 01:17:27;;;;;;;2.58;1.30;;;4.60;99.90;;;;;;5006068;28;20202;-75
2023/01/31 01:19:55;;;;;;;2.42;0.88;;;4.60;99.90;;;;;;4989489;28;20770;-75
2023/01/31 01:22:23;;;;;;;5.35;1.20;;;4.60;99.90;;;;;;5004415;28;20197;-74
2023/01/31 01:24:53;;;;;;;3.50;1.08;;;4.60;99.90;;;;;;4998583;28;20511;-73
2023/01/31 01:27:21;;;;;;;1.67;1.13;;;4.60;99.90;;;;;;4996559;28;20232;-74
2023/01/31 01:29:50;;;;;;;1.50;1.15;;;4.60;99.90;;;;;;5001668;28;20268;-74
2023/01/31 01:32:18;;;;;;;1.98;1.27;;;4.60;99.90;;;;;;5004382;28;20285;-74
2023/01/31 01:34:47;;;;;;;2.83;1.48;;;4.60;99.90;;;;;;5015096;28;20591;-74
2023/01/31 01:37:18;;;;;;;3.67;1.10;;;4.60;99.90;;;;;;5003806;28;20198;-75
2023/01/31 01:39:47;;;;;;;3.67;1.90;;;4.60;99.90;;;;;;5003315;28;20229;-74
2023/01/31 01:42:19;;;;;;;2.65;0.82;;;4.60;99.90;;;;;;5025692;28;20182;-75
2023/01/31 01:44:52;;;;;;;2.65;1.88;;;4.70;99.90;;;;;;5022861;28;20280;-74
2023/01/31 01:47:37;;;;;;;2.95;1.13;;;4.60;99.90;;;;;;4999352;28;20589;-75
2023/01/31 01:50:12;;;;;;;4.22;1.25;;;4.60;99.90;;;;;;5000464;28;20228;-73
2023/01/31 01:52:45;;;;;;;2.42;1.13;;;4.70;99.90;;;;;;5015740;28;20200;-73
2023/01/31 01:55:19;;;;;;;3.42;1.10;;;4.70;99.90;;;;;;5003120;28;20274;-73
2023/01/31 01:57:53;;;;;;;4.97;1.48;;;4.60;99.90;;;;;;4999573;28;20667;-75
2023/01/31 02:00:23;;;;;;;2.65;1.60;;;4.70;99.90;;;;;;5006474;28;20213;-74
2023/01/31 02:02:56;;;;;;;3.80;1.58;;;4.70;99.90;;;;;;5001484;28;20567;-73
2023/01/31 02:05:30;;;;;;;2.08;1.48;;;4.70;99.90;;;;;;4997985;28;20306;-75
2023/01/31 02:08:01;;;;;;;3.05;0.95;;;4.70;99.90;;;;;;5008557;28;20796;-72
2023/01/31 02:10:33;;;;;;;1.80;1.48;;;4.70;99.90;;;;;;5000340;28;20714;-75
2023/01/31 02:13:06;;;;;;;3.08;1.40;;;4.60;99.90;;;;;;4999505;28;20194;-75
2023/01/31 02:15:35;;;;;;;2.10;1.23;;;4.60;99.90;;;;;;5000081;28;20225;-74
2023/01/31 02:18:05;;;;;;;1.65;0.90;;;4.70;99.90;;;;;;4996252;28;20195;-75
2023/01/31 02:21:16;;;;;;;4.05;2.20;;;4.70;99.90;;;;;;4996860;28;20336;-74
2023/01/31 02:24:13;;;;;;;4.13;1.60;;;4.70;99.90;;;;;;5024588;28;20214;-72
2023/01/31 02:27:23;;;;;;;3.55;1.17;;;4.70;99.90;;;;;;4992290;28;20825;-73
2023/01/31 02:30:16;;;;;;;2.75;1.20;;;4.70;99.90;;;;;;4919695;29;20197;-73
2023/01/31 02:32:53;;;;;;;1.75;1.13;;;4.70;99.90;;;;;;5000289;28;20190;-74
2023/01/31 02:35:34;;;;;;;2.38;1.38;;;4.60;99.90;;;;;;5001846;28;20793;-73
2023/01/31 02:38:16;;;;;;;5.13;1.38;;;4.60;99.90;;;;;;5006952;28;20225;-73
2023/01/31 02:40:52;;;;;;;1.73;0.90;;;4.70;99.90;;;;;;4991862;28;20586;-73
2023/01/31 02:43:25;;;;;;;2.65;1.05;;;4.70;99.90;;;;;;5024857;28;20311;-74
2023/01/31 02:46:01;;;;;;;3.05;1.02;;;4.60;99.90;;;;;;4991199;28;20220;-73
2023/01/31 02:48:41;;;;;;;1.88;1.15;;;4.70;99.90;;;;;;4999601;28;20198;-73
2023/01/31 02:51:16;;;;;;;3.15;1.40;;;4.70;99.90;;;;;;5014556;28;20209;-75
2023/01/31 02:53:53;;;;;;;3.65;1.10;;;4.70;99.90;;;;;;4999134;28;20221;-74
2023/01/31 02:56:25;;;;;;;2.03;1.10;;;4.70;99.90;;;;;;5007958;28;20220;-73
2023/01/31 02:59:00;;;;;;;2.90;1.33;;;4.70;99.90;;;;;;5004213;28;20261;-74
2023/01/31 03:01:33;;;;;;;3.15;1.85;;;4.70;99.90;;;;;;5006561;28;20216;-74
2023/01/31 03:04:06;;;;;;;2.65;1.05;;;4.70;99.90;;;;;;4999541;28;20218;-74
2023/01/31 03:07:00;;;;;;;1.25;0.77;;;4.70;99.90;;;;;;4999949;28;20308;-73
2023/01/31 03:09:39;;;;;;;3.28;1.00;;;4.60;99.90;;;;;;4998609;28;20233;-74
2023/01/31 03:12:20;;;;;;;2.03;1.10;;;4.70;99.90;;;;;;5007542;28;21001;-74
2023/01/31 03:14:59;;;;;;;2.15;1.10;;;4.60;99.90;;;;;;5009756;28;20303;-74
2023/01/31 03:17:38;;;;;;;4.97;1.80;;;4.70;99.90;;;;;;4991581;28;20422;-76
2023/01/31 03:20:15;;;;;;;2.47;1.02;;;4.70;99.90;;;;;;4997510;28;20212;-74
2023/01/31 03:22:48;;;;;;;2.22;1.20;;;4.70;99.90;;;;;;5019636;28;20198;-73
2023/01/31 03:25:20;;;;;;;1.88;1.20;;;4.60;99.90;;;;;;5005500;28;20244;-74
2023/01/31 03:27:55;;;;;;;2.00;1.00;;;4.70;99.90;;;;;;5008276;28;20185;-75
2023/01/31 03:30:30;;;;;;;1.88;1.23;;;4.70;99.90;;;;;;5005092;28;20217;-76
2023/01/31 03:33:03;;;;;;;2.67;1.13;;;4.60;99.90;;;;;;5005009;28;20221;-74
2023/01/31 03:35:35;;;;;;;3.58;2.70;;;4.60;99.90;;;;;;4996654;28;20223;-74
2023/01/31 03:38:08;;;;;;;6.00;1.60;;;4.70;99.90;;;;;;4996161;28;20705;-73
2023/01/31 03:40:41;;;;;;;2.25;1.30;;;4.70;99.90;;;;;;4999698;28;20273;-75
2023/01/31 03:43:19;;;;;;;4.38;1.83;;;4.60;99.90;;;;;;4996702;28;20535;-76
2023/01/31 03:45:52;;;;;;;9.18;1.98;;;4.60;99.90;;;;;;5015093;28;20210;-74
2023/01/31 03:48:23;;;;;;;1.48;1.20;;;4.60;99.90;;;;;;4997251;28;20199;-73
2023/01/31 03:50:57;;;;;;;4.53;1.50;;;4.70;99.90;;;;;;5016636;28;20725;-75
2023/01/31 03:53:32;;;;;;;2.78;1.40;;;4.70;99.90;;;;;;4999308;28;20304;-74
2023/01/31 03:56:05;;;;;;;2.35;1.02;;;4.60;99.90;;;;;;5003456;28;20311;-74
2023/01/31 03:58:41;;;;;;;2.30;1.20;;;4.60;99.90;;;;;;5005677;28;20201;-73
2023/01/31 04:01:11;;;;;;;4.00;1.13;;;4.60;99.90;;;;;;4995406;28;20260;-74
2023/01/31 04:03:43;;;;;;;2.30;0.82;;;4.60;99.90;;;;;;4998664;28;20305;-73
2023/01/31 04:06:14;;;;;;;2.50;1.38;;;4.60;99.90;;;;;;5015650;28;20276;-74
2023/01/31 04:08:43;;;;;;;3.03;2.05;;;4.70;99.90;;;;;;5002411;28;20867;-74
2023/01/31 04:11:14;;;;;;;2.20;1.70;;;4.60;99.90;;;;;;5012887;28;20221;-73
2023/01/31 04:13:42;;;;;;;2.00;1.10;;;4.70;99.90;;;;;;5005692;28;20769;-73
2023/01/31 04:16:11;;;;;;;2.83;1.23;;;4.70;99.90;;;;;;5003045;28;20592;-73
2023/01/31 04:18:39;;;;;;;2.20;1.40;;;4.70;99.90;;;;;;4985045;28;20666;-74
2023/01/31 04:21:08;;;;;;;3.38;1.10;;;4.60;99.90;;;;;;5018632;28;20715;-74
2023/01/31 04:23:39;;;;;;;3.67;1.45;;;4.70;99.90;;;;;;5005482;28;20708;-73
2023/01/31 04:26:07;;;;;;;5.40;1.90;;;4.70;99.90;;;;;;4985350;28;20885;-74
2023/01/31 04:28:35;;;;;;;1.80;1.30;;;4.60;99.90;;;;;;5010821;28;20293;-74
2023/01/31 04:31:04;;;;;;;5.97;1.85;;;4.70;99.90;;;;;;5002672;28;20690;-73
2023/01/31 04:33:32;;;;;;;2.90;1.15;;;4.70;99.90;;;;;;4999027;28;20263;-73
2023/01/31 04:36:01;;;;;;;3.63;1.38;;;4.70;99.90;;;;;;4976282;28;20704;-75
2023/01/31 04:38:29;;;;;;;2.63;1.40;;;4.70;99.90;;;;;;5007124;28;20195;-74
2023/01/31 04:40:59;;;;;;;4.85;1.92;;;4.60;99.90;;;;;;5013740;28;20232;-73
2023/01/31 04:43:27;;;;;;;2.35;1.30;;;4.70;99.90;;;;;;4992491;28;20225;-74
2023/01/31 04:45:56;;;;;;;5.15;1.52;;;4.60;99.90;;;;;;5004718;28;20313;-74
2023/01/31 04:48:24;;;;;;;3.05;1.00;;;4.60;99.90;;;;;;5007199;28;20272;-74
2023/01/31 04:50:52;;;;;;;5.20;1.63;;;4.60;99.90;;;;;;4998988;28;20267;-73
2023/01/31 04:53:21;;;;;;;3.95;1.02;;;4.60;99.90;;;;;;5024160;28;20210;-74
2023/01/31 04:55:50;;;;;;;1.88;1.25;;;4.60;99.90;;;;;;5020295;28;20224;-74
2023/01/31 04:58:19;;;;;;;2.65;1.55;;;4.60;99.90;;;;;;4996623;28;20193;-73
2023/01/31 05:00:48;;;;;;;4.88;1.70;;;4.60;99.90;;;;;;5003474;28;20268;-75
2023/01/31 05:03:16;;;;;;;2.15;1.20;;;4.60;99.90;;;;;;4994514;28;20240;-74
2023/01/31 05:05:44;;;;;;;3.88;1.25;;;4.60;99.90;;;;;;5000663;28;20585;-75
2023/01/31 05:08:13;;;;;;;1.80;1.25;;;4.60;99.90;;;;;;4998599;28;21009;-74
2023/01/31 05:10:41;;;;;;;2.92;1.20;;;4.60;99.90;;;;;;5026958;28;20252;-68
2023/01/31 05:13:10;;;;;;;3.35;2.00;;;4.60;99.90;;;;;;5008950;28;20205;-69
2023/01/31 05:15:40;;;;;;;1.67;1.15;;;4.60;99.90;;;;;;5001010;28;20733;-68
2023/01/31 05:18:08;;;;;;;3.10;1.60;;;4.60;99.90;;;;;;5003350;28;20287;-68
2023/01/31 05:20:39;;;;;;;3.28;1.17;;;4.60;99.90;;;;;;5020984;28;20236;-69
2023/01/31 05:23:08;;;;;;;1.67;1.15;;;4.60;99.90;;;;;;5019202;28;20304;-68
2023/01/31 05:25:37;;;;;;;2.78;1.48;;;4.60;99.90;;;;;;5019750;28;20591;-68
2023/01/31 05:28:05;;;;;;;2.25;1.10;;;4.60;99.90;;;;;;4994805;28;20193;-69
2023/01/31 05:30:34;;;;;;;2.40;1.20;;;4.60;99.90;;;;;;4993871;28;20229;-67
2023/01/31 05:33:04;;;;;;;3.60;1.20;;;4.60;99.90;;;;;;5024010;28;20234;-68
2023/01/31 05:35:33;;;;;;;4.10;1.88;;;4.60;99.90;;;;;;5010200;28;20225;-67
2023/01/31 05:38:02;;;;;;;4.10;1.10;;;4.60;99.90;;;;;;5003934;28;20194;-68
2023/01/31 05:40:30;;;;;;;3.95;1.10;;;4.60;99.90;;;;;;4999811;28;20650;-68
2023/01/31 05:43:00;;;;;;;2.55;1.30;;;4.60;99.90;;;;;;5004711;28;20195;-70
2023/01/31 05:45:29;;;;;;;3.20;1.00;;;4.60;99.90;;;;;;5022646;28;20217;-69
2023/01/31 05:47:59;;;;;;;6.07;1.80;;;4.60;99.90;;;;;;5020352;28;20674;-66
2023/01/31 05:50:29;;;;;;;3.63;2.10;;;4.60;99.90;;;;;;5014312;28;20235;-67
2023/01/31 05:53:09;;;;;;;1.67;1.20;;;4.60;99.90;;;;;;5006310;28;20237;-68
2023/01/31 05:55:38;;;;;;;1.60;1.17;;;4.60;99.90;;;;;;4994684;28;20226;-68
2023/01/31 05:58:06;;;;;;;2.47;2.13;;;4.60;99.90;;;;;;4994547;28;20202;-68
2023/01/31 06:00:35;;;;;;;2.08;1.15;;;4.60;99.90;;;;;;4999641;28;20233;-67
2023/01/31 06:03:03;;;;;;;5.75;1.30;;;4.60;99.90;;;;;;5007420;28;20280;-68
2023/01/31 06:05:33;;;;;;;2.13;1.33;;;4.60;99.90;;;;;;5005532;28;20617;-69
2023/01/31 06:08:01;;;;;;;3.15;1.40;;;4.60;99.90;;;;;;5020463;28;20730;-69
2023/01/31 06:10:29;;;;;;;1.88;1.27;;;4.60;99.90;;;;;;4993009;28;20224;-69
2023/01/31 06:12:58;;;;;;;3.63;2.63;;;4.60;99.90;;;;;;4993372;28;20697;-69
2023/01/31 06:15:27;;;;;;;3.90;1.30;;;4.60;99.90;;;;;;5004357;28;20916;-69
2023/01/31 06:17:55;;;;;;;3.05;1.50;;;4.60;99.90;;;;;;4999196;28;20225;-68
2023/01/31 06:20:23;;;;;;;1.90;1.33;;;4.60;99.90;;;;;;5016683;28;20626;-67
2023/01/31 06:22:53;;;;;;;2.38;1.15;;;4.60;99.90;;;;;;5009690;28;20316;-69
2023/01/31 06:25:21;;;;;;;4.07;3.25;;;4.60;99.90;;;;;;4996831;28;20595;-67
2023/01/31 06:27:50;;;;;;;4.07;1.55;;;4.60;99.90;;;;;;4997302;28;20191;-68
2023/01/31 06:30:18;;;;;;;4.18;1.38;;;4.60;99.90;;;;;;5013185;28;20228;-67
2023/01/31 06:32:47;;;;;;;2.45;1.48;;;4.60;99.90;;;;;;4999969;28;20271;-67
2023/01/31 06:35:15;;;;;;;4.03;1.60;;;4.60;99.90;;;;;;5007668;28;20227;-68
2023/01/31 06:37:43;;;;;;;3.72;1.88;;;4.60;99.90;;;;;;4992464;28;20201;-67
2023/01/31 06:40:13;;;;;;;1.70;1.55;;;4.60;99.90;;;;;;5015540;28;20659;-69
2023/01/31 06:42:42;;;;;;;4.75;1.40;;;4.60;99.90;;;;;;5007820;28;20228;-68
2023/01/31 06:45:11;;;;;;;7.82;2.40;;;4.60;99.90;;;;;;5001565;28;20250;-66
2023/01/31 06:47:39;;;;;;;1.52;1.42;;;4.60;99.90;;;;;;5002784;28;20194;-69
2023/01/31 06:50:09;;;;;;;1.60;1.23;;;4.60;99.90;;;;;;5020026;28;20193;-68
2023/01/31 06:52:38;;;;;;;5.38;1.25;;;4.60;99.90;;;;;;5010374;28;20293;-67
2023/01/31 06:55:07;;;;;;;4.30;1.48;;;4.60;99.90;;;;;;5002736;28;20217;-68
2023/01/31 06:57:37;;;;;;;1.63;1.10;;;4.60;99.90;;;;;;5002455;28;20194;-69
2023/01/31 07:00:06;;;;;;;1.75;1.30;;;4.60;99.90;;;;;;5016733;28;20209;-66
2023/01/31 07:02:34;;;;;;;5.10;1.50;;;4.60;99.90;;;;;;4992708;28;20293;-69
2023/01/31 07:05:03;;;;;;;2.50;1.88;;;4.60;99.90;;;;;;5009005;28;20590;-66
2023/01/31 07:07:31;;;;;;;3.65;1.70;;;4.60;99.90;;;;;;4996893;28;20190;-68
2023/01/31 07:09:59;;;;;;;2.30;1.40;;;4.60;99.90;;;;;;5025889;28;20193;-67
2023/01/31 07:12:28;;;;;;;2.50;1.45;;;4.60;99.90;;;;;;5001701;28;20860;-66
2023/01/31 07:14:58;;;;;;;4.13;1.40;;;4.60;99.90;;;;;;5005059;28;20316;-67
2023/01/31 07:17:27;;;;;;;7.93;1.60;;;4.60;99.90;;;;;;5012697;28;20303;-67
2023/01/31 07:19:55;;;;;;;3.97;2.15;;;4.60;99.90;;;;;;5017932;28;20241;-67
2023/01/31 07:22:24;;;;;;;2.00;1.60;;;4.60;99.90;;;;;;4991778;28;20671;-68
2023/01/31 07:24:52;;;;;;;3.40;1.40;;;4.60;99.90;;;;;;4996563;28;20213;-68
2023/01/31 07:27:20;;;;;;;5.68;1.70;;;4.60;99.90;;;;;;5022823;28;20280;-68
2023/01/31 07:29:49;;;;;;;3.45;1.00;;;4.60;99.90;;;;;;5012707;28;20222;-67
2023/01/31 07:32:19;;;;;;;3.47;1.30;;;4.60;99.90;;;;;;4996252;28;20229;-68
2023/01/31 07:34:47;;;;;;;2.92;1.15;;;4.60;99.90;;;;;;5012774;28;20232;-68
2023/01/31 07:37:15;;;;;;;3.75;1.10;;;4.60;99.90;;;;;;5004699;28;20217;-68
2023/01/31 07:39:44;;;;;;;2.92;1.20;;;4.60;99.90;;;;;;5002180;28;20222;-67
2023/01/31 07:42:12;;;;;;;1.95;1.15;;;4.60;99.90;;;;;;5005745;28;20201;-67
2023/01/31 07:44:43;;;;;;;1.95;1.27;;;4.60;99.90;;;;;;4990014;28;20237;-67
2023/01/31 07:47:12;;;;;;;4.78;1.05;;;4.60;99.90;;;;;;5012137;28;20190;-66
2023/01/31 07:49:41;;;;;;;6.15;1.20;;;4.60;99.90;;;;;;5006364;28;20197;-68
2023/01/31 07:52:10;;;;;;;2.38;1.30;;;4.60;99.90;;;;;;5022264;28;21049;-68
2023/01/31 07:54:38;;;;;;;1.20;1.10;;;4.60;99.90;;;;;;5014651;28;20270;-67
2023/01/31 07:57:07;;;;;;;2.70;1.50;;;4.60;99.90;;;;;;5018315;28;20197;-66
2023/01/31 07:59:35;;;;;;;5.13;0.95;;;4.60;99.90;;;;;;4998955;28;20209;-66
2023/01/31 08:04:51;;;;;;;1.60;0.82;;;4.60;99.90;;;;;;5011828;28;20227;-67
2023/01/31 08:07:19;;;;;;;3.60;1.65;;;4.60;99.90;;;;;;5001215;28;20315;-68
2023/01/31 08:09:49;;;;;;;4.72;1.55;;;4.60;99.90;;;;;;5007206;28;20218;-67
2023/01/31 08:12:17;;;;;;;3.33;1.77;;;4.60;99.90;;;;;;5000775;28;20382;-67
2023/01/31 08:14:45;;;;;;;3.15;1.17;;;4.60;99.90;;;;;;5016115;28;20244;-67
2023/01/31 08:17:14;;;;;;;2.42;1.65;;;4.60;99.90;;;;;;4998999;28;20739;-69
2023/01/31 08:19:42;;;;;;;3.15;1.30;;;4.60;99.90;;;;;;4995706;28;20232;-67
2023/01/31 08:22:12;;;;;;;1.38;1.08;;;4.60;99.90;;;;;;5008433;28;20771;-66
2023/01/31 08:24:40;;;;;;;2.88;1.35;;;4.60;99.90;;;;;;5002785;28;20211;-68
2023/01/31 08:27:09;;;;;;;2.42;1.20;;;4.60;99.90;;;;;;4998935;28;20198;-69
2023/01/31 08:29:37;;;;;;;3.45;1.83;;;4.60;99.90;;;;;;5002092;28;20550;-67
2023/01/31 08:32:06;;;;;;;4.80;1.70;;;4.60;99.90;;;;;;5004238;28;20289;-68
2023/01/31 08:34:35;;;;;;;3.80;1.45;;;4.60;99.90;;;;;;5008228;28;20225;-68
2023/01/31 08:37:03;;;;;;;2.38;1.30;;;4.60;99.90;;;;;;5006318;28;20196;-69
2023/01/31 08:39:33;;;;;;;2.67;1.20;;;4.60;99.90;;;;;;5003212;28;20201;-69
2023/01/31 08:42:01;;;;;;;4.22;1.58;;;4.60;99.90;;;;;;5007697;28;20663;-67
2023/01/31 08:44:29;;;;;;;1.88;1.42;;;4.60;99.90;;;;;;5004285;28;20315;-68
2023/01/31 08:47:00;;;;;;;1.52;0.95;;;4.60;99.90;;;;;;5006270;28;20699;-66
2023/01/31 08:49:29;;;;;;;2.85;1.50;;;4.60;99.90;;;;;;4999723;28;20239;-67
2023/01/31 08:51:57;;;;;;;2.55;1.25;;;4.60;99.90;;;;;;5004514;28;20191;-67
2023/01/31 08:54:26;;;;;;;1.60;1.25;;;4.60;99.90;;;;;;5000158;28;20298;-66
2023/01/31 08:56:56;;;;;;;3.53;1.92;;;4.60;99.90;;;;;;5002938;28;20249;-68
2023/01/31 08:59:24;;;;;;;4.05;1.42;;;4.60;99.90;;;;;;4998426;28;20204;-67
2023/01/31 09:01:53;;;;;;;3.17;1.50;;;4.60;99.90;;;;;;4995554;28;20566;-68
2023/01/31 09:04:22;;;;;;;3.35;1.17;;;4.60;99.90;;;;;;5012552;28;20207;-69
2023/01/31 09:06:53;;;;;;;2.55;1.27;;;4.60;99.90;;;;;;5000944;28;20203;-68
2023/01/31 09:09:21;;;;;;;2.95;1.10;;;4.60;99.90;;;;;;5025553;28;20198;-68
2023/01/31 09:11:50;;;;;;;4.35;1.40;;;4.60;99.90;;;;;;5002618;28;20197;-67
2023/01/31 09:14:20;;;;;;;3.47;1.20;;;4.60;99.90;;;;;;4994628;28;20365;-66
2023/01/31 09:16:49;;;;;;;1.52;1.10;;;4.60;99.90;;;;;;5000309;28;20233;-67
2023/01/31 09:19:21;;;;;;;5.20;1.77;;;4.60;99.90;;;;;;5010165;28;20210;-67
2023/01/31 09:21:50;;;;;;;3.67;1.60;;;4.60;99.90;;;;;;5012086;28;20189;-67
2023/01/31 09:24:19;;;;;;;3.25;1.38;;;4.60;99.90;;;;;;5005384;28;20217;-68
2023/01/31 09:26:48;;;;;;;5.60;1.23;;;4.60;99.90;;;;;;4995566;28;20229;-66
2023/01/31 09:29:19;;;;;;;3.08;1.20;;;4.60;99.90;;;;;;5010432;28;20188;-69
2023/01/31 09:31:50;;;;;;;2.72;1.40;;;4.60;99.90;;;;;;5005270;28;20205;-67
2023/01/31 09:34:20;;;;;;;2.55;1.00;;;4.60;99.90;;;;;;5007031;28;20222;-67
2023/01/31 09:36:53;;;;;;;4.60;1.50;;;4.60;99.90;;;;;;5009365;28;20194;-68
2023/01/31 09:39:21;;;;;;;6.35;1.73;;;4.60;99.90;;;;;;5021741;28;20286;-67
2023/01/31 09:41:53;;;;;;;1.90;0.88;;;4.60;99.90;;;;;;4994547;28;20568;-66
2023/01/31 09:44:25;;;;;;;3.05;1.50;;;4.60;99.90;;;;;;4997156;28;20217;-65
2023/01/31 09:46:59;;;;;;;3.40;1.60;;;4.60;99.90;;;;;;5020549;28;20281;-73
2023/01/31 09:49:31;;;;;;;2.67;1.73;;;4.60;99.90;;;;;;5005053;28;20199;-75
2023/01/31 09:52:03;;;;;;;3.65;1.40;;;4.60;99.90;;;;;;5007671;28;20288;-73
2023/01/31 09:54:36;;;;;;;3.67;1.65;;;4.60;99.90;;;;;;5003756;28;20229;-72
2023/01/31 09:57:15;;;;;;;2.20;1.10;;;4.60;99.90;;;;;;5002355;28;20197;-75
2023/01/31 09:59:49;;;;;;;2.58;1.60;;;4.60;99.90;;;;;;4999762;28;20183;-74
2023/01/31 10:02:38;;;;;;;5.15;1.58;;;4.60;99.90;;;;;;5017244;28;20881;-67
2023/01/31 10:05:20;;;;;;;3.88;1.65;;;4.60;99.90;;;;;;4989779;28;20213;-67
2023/01/31 10:07:59;;;;;;;2.40;1.55;;;4.60;99.90;;;;;;4996321;28;20227;-69
2023/01/31 10:10:35;;;;;;;1.55;1.20;;;4.60;99.90;;;;;;5001488;28;20265;-67
2023/01/31 10:13:10;;;;;;;1.30;1.10;;;4.60;99.90;;;;;;5014333;28;20189;-68
2023/01/31 10:15:43;;;;;;;2.60;1.40;;;4.60;99.90;;;;;;5022999;28;20216;-69
2023/01/31 10:18:18;;;;;;;5.35;1.50;;;4.60;99.90;;;;;;5008963;28;20306;-67
2023/01/31 10:20:50;;;;;;;2.35;1.65;;;4.60;99.90;;;;;;5016083;28;20264;-67
2023/01/31 10:23:26;;;;;;;2.38;1.20;;;4.60;99.90;;;;;;5018839;28;20735;-66
2023/01/31 10:25:59;;;;;;;2.65;1.20;;;4.60;99.90;;;;;;4994409;28;20593;-67
2023/01/31 10:28:34;;;;;;;3.65;1.50;;;4.60;99.90;;;;;;4997394;28;20283;-68
2023/01/31 10:31:12;;;;;;;4.20;1.40;;;4.60;99.90;;;;;;4997521;28;20225;-68
2023/01/31 10:33:51;;;;;;;2.80;1.60;;;4.60;99.90;;;;;;5013652;28;20214;-68
2023/01/31 10:36:28;;;;;;;2.72;2.08;;;4.60;99.90;;;;;;5018355;28;20231;-66
2023/01/31 10:39:04;;;;;;;2.65;0.93;;;4.60;99.90;;;;;;4995134;28;20243;-66
2023/01/31 10:41:44;;;;;;;2.83;1.42;;;4.60;99.90;;;;;;4997878;28;20235;-69
2023/01/31 10:44:21;;;;;;;2.67;1.85;;;4.60;99.90;;;;;;4998665;28;20241;-66
2023/01/31 10:46:52;;;;;;;2.83;1.33;;;4.60;99.90;;;;;;4999100;28;20252;-68
2023/01/31 10:49:24;;;;;;;2.75;1.77;;;4.60;99.90;;;;;;5015081;28;20198;-67
2023/01/31 10:52:15;;;;;;;3.88;1.67;;;4.60;99.90;;;;;;4995010;28;20281;-67
2023/01/31 10:54:54;;;;;;;3.10;1.83;;;4.60;99.90;;;;;;4991542;28;20326;-68
2023/01/31 10:57:23;;;;;;;4.22;1.75;;;4.60;99.90;;;;;;5023284;28;20256;-68
2023/01/31 10:59:53;;;;;;;3.53;1.60;;;4.60;99.90;;;;;;5019932;28;20220;-67
2023/01/31 11:02:24;;;;;;;5.40;2.50;;;4.60;99.90;;;;;;5007181;28;20193;-66
2023/01/31 11:04:56;;;;;;;2.60;1.58;;;4.60;99.90;;;;;;5000409;28;20217;-68
2023/01/31 11:07:28;;;;;;;3.95;1.83;;;4.60;99.90;;;;;;4997647;28;20224;-66
2023/01/31 11:09:57;;;;;;;3.63;1.75;;;4.60;99.90;;;;;;5019730;28;20657;-67
2023/01/31 11:12:41;;;;;;;2.45;1.50;;;4.60;99.90;;;;;;5010048;28;20222;-67
2023/01/31 11:15:16;;;;;;;2.78;1.25;;;4.60;99.90;;;;;;5002052;28;20219;-68
2023/01/31 11:17:47;;;;;;;2.90;1.35;;;4.60;99.90;;;;;;4999189;28;20201;-68
2023/01/31 11:20:27;;;;;;;2.28;1.50;;;4.60;99.90;;;;;;5025736;28;20733;-68
2023/01/31 11:23:00;;;;;;;2.83;1.30;;;4.60;99.90;;;;;;4992367;28;20684;-67
2023/01/31 11:25:31;;;;;;;4.40;1.77;;;4.60;99.90;;;;;;5012415;28;20314;-68
2023/01/31 11:28:03;;;;;;;2.85;1.40;;;4.60;99.90;;;;;;5000386;28;20204;-66
2023/01/31 11:30:34;;;;;;;2.33;1.27;;;4.60;99.90;;;;;;5004358;28;20270;-67
2023/01/31 11:33:03;;;;;;;3.35;1.48;;;4.60;99.90;;;;;;5001089;28;20999;-68
2023/01/31 11:35:35;;;;;;;1.40;1.30;;;4.60;99.90;;;;;;5000571;28;20253;-67
2023/01/31 11:38:21;;;;;;;3.55;1.75;;;4.60;99.90;;;;;;5004580;28;20204;-67
2023/01/31 11:40:50;;;;;;;4.15;1.70;;;4.60;99.90;;;;;;4995747;28;20217;-67
2023/01/31 11:43:26;;;;;;;2.35;1.38;;;4.60;99.90;;;;;;5015182;28;20249;-66
2023/01/31 11:45:57;;;;;;;5.78;1.50;;;4.70;99.90;;;;;;4998798;28;20217;-67
2023/01/31 11:48:32;;;;;;;2.45;1.67;;;4.70;99.90;;;;;;5004088;28;20197;-66
2023/01/31 11:51:03;;;;;;;3.45;2.20;;;4.70;99.90;;;;;;4985501;28;20220;-67
2023/01/31 11:53:41;;;;;;;2.50;1.40;;;4.70;99.90;;;;;;5001941;28;20225;-68
2023/01/31 11:56:15;;;;;;;3.72;2.15;;;4.70;99.90;;;;;;4996521;28;20223;-68
2023/01/31 11:58:48;;;;;;;7.68;1.55;;;4.70;99.90;;;;;;5000096;28;20197;-69
2023/01/31 12:01:21;;;;;;;2.45;1.10;;;4.70;99.90;;;;;;5000055;28;20225;-68
2023/01/31 12:03:55;;;;;;;2.05;1.27;;;4.70;99.90;;;;;;5009410;28;20224;-66
2023/01/31 12:06:35;;;;;;;4.18;1.60;;;4.70;99.90;;;;;;5024653;28;20221;-67
2023/01/31 12:09:06;;;;;;;5.50;1.30;;;4.70;99.90;;;;;;5007426;28;20188;-67
2023/01/31 12:11:35;;;;;;;4.32;1.20;;;4.70;99.90;;;;;;4999733;28;20221;-66
2023/01/31 12:14:14;;;;;;;1.67;1.02;;;4.70;99.90;;;;;;5021037;28;20287;-67
2023/01/31 12:16:44;;;;;;;3.30;1.95;;;4.70;99.90;;;;;;5010238;28;20249;-67
2023/01/31 12:19:25;;;;;;;4.68;1.65;;;4.70;99.90;;;;;;5008337;28;20212;-68
2023/01/31 12:22:03;;;;;;;2.30;2.10;;;4.70;99.90;;;;;;5000201;28;20236;-66
2023/01/31 12:24:43;;;;;;;2.78;2.30;;;4.70;99.90;;;;;;5013487;28;20281;-67
2023/01/31 12:27:24;;;;;;;3.65;2.13;;;4.70;99.90;;;;;;5011281;28;20193;-67
2023/01/31 12:30:15;;;;;;;4.30;2.13;;;4.80;99.90;;;;;;4987416;28;20589;-68
2023/01/31 12:33:05;;;;;;;3.88;2.35;;;4.70;99.90;;;;;;4993155;28;20194;-68
2023/01/31 12:35:49;;;;;;;4.18;2.17;;;4.70;99.90;;;;;;5003675;28;20586;-66
2023/01/31 12:38:38;;;;;;;4.85;2.03;;;4.70;99.90;;;;;;5000738;28;20191;-66
2023/01/31 12:41:20;;;;;;;6.72;3.15;;;4.70;99.90;;;;;;4991459;28;20252;-68
2023/01/31 12:44:09;;;;;;;5.13;3.15;;;4.70;99.90;;;;;;5007097;28;20311;-66
2023/01/31 12:46:53;;;;;;;4.50;2.00;;;4.70;99.90;;;;;;5014468;28;20566;-68
2023/01/31 12:49:58;;;;;;;4.93;2.40;;;4.70;99.90;;;;;;5017119;28;20193;-66
2023/01/31 12:52:36;;;;;;;2.55;1.90;;;4.70;99.90;;;;;;5007634;28;20318;-66
2023/01/31 12:55:17;;;;;;;4.93;2.30;;;4.70;99.90;;;;;;5002673;28;20272;-67
2023/01/31 12:57:53;;;;;;;3.63;2.40;;;4.70;99.90;;;;;;5006869;28;20205;-66
2023/01/31 13:00:32;;;;;;;2.65;2.05;;;4.70;99.90;;;;;;5015458;28;20380;-66
2023/01/31 13:03:23;;;;;;;3.38;1.80;;;4.70;99.90;;;;;;5010612;28;20201;-66
2023/01/31 13:05:59;;;;;;;3.35;2.05;;;4.70;99.90;;;;;;5009534;28;20318;-67
2023/01/31 13:08:30;;;;;;;3.38;2.40;;;4.70;99.90;;;;;;5007460;28;20293;-68
2023/01/31 13:11:06;;;;;;;2.28;2.08;;;4.70;99.90;;;;;;5018734;28;20248;-66
2023/01/31 13:13:41;;;;;;;3.70;1.98;;;4.70;99.90;;;;;;5006389;28;20216;-72
2023/01/31 13:16:13;;;;;;;6.63;3.50;;;4.70;99.90;;;;;;5010582;28;20222;-72
2023/01/31 13:18:45;;;;;;;4.50;3.85;;;4.80;99.90;;;;;;5003172;28;20214;-72
2023/01/31 13:21:17;;;;;;;4.03;2.22;;;4.80;99.90;;;;;;4988904;28;20223;-72
2023/01/31 13:23:49;;;;;;;8.65;2.65;;;4.90;99.90;;;;;;4999197;28;20297;-74
2023/01/31 13:26:25;;;;;;;4.05;1.98;;;4.80;99.90;;;;;;5005407;28;20218;-74